sensor_id;sensor_type;location;lat;lon;timestamp;P1;durP1;ratioP1;P2;durP2;ratioP2
19026;SDS011;9646;52.034;5.554;2023-07-08T00:02:09;4.40;;;2.08;;
19026;SDS011;9646;52.034;5.554;2023-07-08T00:04:36;2.95;;;2.03;;
19026;SDS011;9646;52.034;5.554;2023-07-08T00:07:03;4.82;;;2.50;;
19026;SDS011;9646;52.034;5.554;2023-07-08T00:09:32;6.85;;;2.38;;
19026;SDS011;9646;52.034;5.554;2023-07-08T00:11:59;3.58;;;2.15;;
19026;SDS011;9646;52.034;5.554;2023-07-08T00:14:26;3.38;;;2.45;;
19026;SDS011;9646;52.034;5.554;2023-07-08T00:16:53;4.63;;;2.40;;
19026;SDS011;9646;52.034;5.554;2023-07-08T00:19:20;2.42;;;2.15;;
19026;SDS011;9646;52.034;5.554;2023-07-08T00:21:49;2.13;;;1.88;;
19026;SDS011;9646;52.034;5.554;2023-07-08T00:24:17;2.88;;;2.15;;
19026;SDS011;9646;52.034;5.554;2023-07-08T00:26:46;3.53;;;2.00;;
19026;SDS011;9646;52.034;5.554;2023-07-08T00:29:13;4.63;;;2.20;;
19026;SDS011;9646;52.034;5.554;2023-07-08T00:31:42;3.45;;;2.20;;
19026;SDS011;9646;52.034;5.554;2023-07-08T00:34:09;2.38;;;2.08;;
19026;SDS011;9646;52.034;5.554;2023-07-08T00:36:36;3.63;;;2.17;;
19026;SDS011;9646;52.034;5.554;2023-07-08T00:39:07;3.08;;;1.92;;
19026;SDS011;9646;52.034;5.554;2023-07-08T00:41:36;2.10;;;1.75;;
19026;SDS011;9646;52.034;5.554;2023-07-08T00:44:07;1.88;;;1.55;;
19026;SDS011;9646;52.034;5.554;2023-07-08T00:46:37;2.67;;;1.90;;
19026;SDS011;9646;52.034;5.554;2023-07-08T00:49:09;3.05;;;2.00;;
19026;SDS011;9646;52.034;5.554;2023-07-08T00:51:40;2.97;;;2.00;;
19026;SDS011;9646;52.034;5.554;2023-07-08T00:54:09;6.55;;;2.28;;
19026;SDS011;9646;52.034;5.554;2023-07-08T00:56:38;2.58;;;2.10;;
19026;SDS011;9646;52.034;5.554;2023-07-08T00:59:08;4.50;;;2.17;;
19026;SDS011;9646;52.034;5.554;2023-07-08T01:01:36;3.17;;;2.40;;
19026;SDS011;9646;52.034;5.554;2023-07-08T01:04:06;2.40;;;1.80;;
19026;SDS011;9646;52.034;5.554;2023-07-08T01:06:34;2.70;;;1.83;;
19026;SDS011;9646;52.034;5.554;2023-07-08T01:09:05;2.97;;;2.30;;
19026;SDS011;9646;52.034;5.554;2023-07-08T01:11:33;3.05;;;2.10;;
19026;SDS011;9646;52.034;5.554;2023-07-08T01:14:03;4.28;;;2.20;;
19026;SDS011;9646;52.034;5.554;2023-07-08T01:16:33;4.00;;;2.35;;
19026;SDS011;9646;52.034;5.554;2023-07-08T01:19:01;3.85;;;2.20;;
19026;SDS011;9646;52.034;5.554;2023-07-08T01:21:29;3.75;;;1.98;;
19026;SDS011;9646;52.034;5.554;2023-07-08T01:23:58;2.65;;;2.22;;
19026;SDS011;9646;52.034;5.554;2023-07-08T01:26:25;3.75;;;2.08;;
19026;SDS011;9646;52.034;5.554;2023-07-08T01:28:53;2.42;;;1.95;;
19026;SDS011;9646;52.034;5.554;2023-07-08T01:31:20;3.45;;;2.15;;
19026;SDS011;9646;52.034;5.554;2023-07-08T01:33:48;2.85;;;1.77;;
19026;SDS011;9646;52.034;5.554;2023-07-08T01:36:16;2.40;;;2.17;;
19026;SDS011;9646;52.034;5.554;2023-07-08T01:38:43;3.78;;;2.35;;
19026;SDS011;9646;52.034;5.554;2023-07-08T01:41:13;3.10;;;2.08;;
19026;SDS011;9646;52.034;5.554;2023-07-08T01:43:40;4.40;;;2.42;;
19026;SDS011;9646;52.034;5.554;2023-07-08T01:46:10;2.45;;;2.25;;
19026;SDS011;9646;52.034;5.554;2023-07-08T01:48:38;2.28;;;2.08;;
19026;SDS011;9646;52.034;5.554;2023-07-08T01:51:07;3.20;;;1.88;;
19026;SDS011;9646;52.034;5.554;2023-07-08T01:53:35;4.28;;;2.50;;
19026;SDS011;9646;52.034;5.554;2023-07-08T01:56:03;2.35;;;1.95;;
19026;SDS011;9646;52.034;5.554;2023-07-08T01:58:31;2.70;;;2.22;;
19026;SDS011;9646;52.034;5.554;2023-07-08T02:00:58;4.05;;;2.42;;
19026;SDS011;9646;52.034;5.554;2023-07-08T02:03:26;4.00;;;1.98;;
19026;SDS011;9646;52.034;5.554;2023-07-08T02:05:53;3.33;;;2.38;;
19026;SDS011;9646;52.034;5.554;2023-07-08T02:08:20;2.90;;;2.35;;
19026;SDS011;9646;52.034;5.554;2023-07-08T02:10:48;2.63;;;1.83;;
19026;SDS011;9646;52.034;5.554;2023-07-08T02:13:16;4.80;;;2.20;;
19026;SDS011;9646;52.034;5.554;2023-07-08T02:15:44;3.35;;;2.03;;
19026;SDS011;9646;52.034;5.554;2023-07-08T02:18:11;2.47;;;2.13;;
19026;SDS011;9646;52.034;5.554;2023-07-08T02:20:38;2.45;;;1.92;;
19026;SDS011;9646;52.034;5.554;2023-07-08T02:23:05;2.92;;;1.67;;
19026;SDS011;9646;52.034;5.554;2023-07-08T02:25:32;2.97;;;2.00;;
19026;SDS011;9646;52.034;5.554;2023-07-08T02:27:59;2.83;;;2.08;;
19026;SDS011;9646;52.034;5.554;2023-07-08T02:30:26;4.65;;;2.60;;
19026;SDS011;9646;52.034;5.554;2023-07-08T02:32:55;2.90;;;2.20;;
19026;SDS011;9646;52.034;5.554;2023-07-08T02:35:23;4.00;;;2.55;;
19026;SDS011;9646;52.034;5.554;2023-07-08T02:37:51;3.55;;;2.28;;
19026;SDS011;9646;52.034;5.554;2023-07-08T02:40:18;4.20;;;2.00;;
19026;SDS011;9646;52.034;5.554;2023-07-08T02:42:45;2.60;;;2.15;;
19026;SDS011;9646;52.034;5.554;2023-07-08T02:45:13;3.55;;;1.98;;
19026;SDS011;9646;52.034;5.554;2023-07-08T02:47:40;4.90;;;2.30;;
19026;SDS011;9646;52.034;5.554;2023-07-08T02:50:09;2.08;;;1.83;;
19026;SDS011;9646;52.034;5.554;2023-07-08T02:52:36;2.30;;;1.80;;
19026;SDS011;9646;52.034;5.554;2023-07-08T02:55:03;3.45;;;2.30;;
19026;SDS011;9646;52.034;5.554;2023-07-08T02:57:31;2.63;;;2.35;;
19026;SDS011;9646;52.034;5.554;2023-07-08T02:59:58;3.40;;;1.95;;
19026;SDS011;9646;52.034;5.554;2023-07-08T03:02:25;2.72;;;1.90;;
19026;SDS011;9646;52.034;5.554;2023-07-08T03:04:53;2.70;;;2.00;;
19026;SDS011;9646;52.034;5.554;2023-07-08T03:07:25;3.30;;;2.45;;
19026;SDS011;9646;52.034;5.554;2023-07-08T03:09:52;3.92;;;2.13;;
19026;SDS011;9646;52.034;5.554;2023-07-08T03:12:19;2.42;;;1.83;;
19026;SDS011;9646;52.034;5.554;2023-07-08T03:14:46;2.35;;;1.83;;
19026;SDS011;9646;52.034;5.554;2023-07-08T03:17:13;2.80;;;2.08;;
19026;SDS011;9646;52.034;5.554;2023-07-08T03:19:43;3.65;;;2.30;;
19026;SDS011;9646;52.034;5.554;2023-07-08T03:22:10;3.55;;;2.20;;
19026;SDS011;9646;52.034;5.554;2023-07-08T03:24:38;6.32;;;2.25;;
19026;SDS011;9646;52.034;5.554;2023-07-08T03:27:11;2.45;;;2.00;;
19026;SDS011;9646;52.034;5.554;2023-07-08T03:29:38;2.55;;;2.00;;
19026;SDS011;9646;52.034;5.554;2023-07-08T03:32:06;2.03;;;1.83;;
19026;SDS011;9646;52.034;5.554;2023-07-08T03:34:34;3.97;;;2.20;;
19026;SDS011;9646;52.034;5.554;2023-07-08T03:37:01;3.92;;;2.42;;
19026;SDS011;9646;52.034;5.554;2023-07-08T03:39:28;3.53;;;2.17;;
19026;SDS011;9646;52.034;5.554;2023-07-08T03:41:58;3.55;;;1.90;;
19026;SDS011;9646;52.034;5.554;2023-07-08T03:44:25;3.10;;;1.70;;
19026;SDS011;9646;52.034;5.554;2023-07-08T03:46:52;2.05;;;1.85;;
19026;SDS011;9646;52.034;5.554;2023-07-08T03:49:19;2.78;;;2.15;;
19026;SDS011;9646;52.034;5.554;2023-07-08T03:51:49;3.40;;;1.92;;
19026;SDS011;9646;52.034;5.554;2023-07-08T03:54:17;2.33;;;1.95;;
19026;SDS011;9646;52.034;5.554;2023-07-08T03:56:44;2.95;;;2.22;;
19026;SDS011;9646;52.034;5.554;2023-07-08T03:59:13;6.32;;;2.15;;
19026;SDS011;9646;52.034;5.554;2023-07-08T04:01:40;2.60;;;2.13;;
19026;SDS011;9646;52.034;5.554;2023-07-08T04:04:08;2.00;;;1.77;;
19026;SDS011;9646;52.034;5.554;2023-07-08T04:06:35;2.65;;;1.90;;
19026;SDS011;9646;52.034;5.554;2023-07-08T04:09:02;5.80;;;2.25;;
19026;SDS011;9646;52.034;5.554;2023-07-08T04:11:30;6.38;;;2.55;;
19026;SDS011;9646;52.034;5.554;2023-07-08T04:13:57;2.22;;;1.75;;
19026;SDS011;9646;52.034;5.554;2023-07-08T04:16:25;3.22;;;2.03;;
19026;SDS011;9646;52.034;5.554;2023-07-08T04:18:54;2.40;;;2.05;;
19026;SDS011;9646;52.034;5.554;2023-07-08T04:21:21;2.65;;;2.03;;
19026;SDS011;9646;52.034;5.554;2023-07-08T04:23:50;2.45;;;1.60;;
19026;SDS011;9646;52.034;5.554;2023-07-08T04:26:17;4.00;;;1.73;;
19026;SDS011;9646;52.034;5.554;2023-07-08T04:28:44;2.40;;;1.92;;
19026;SDS011;9646;52.034;5.554;2023-07-08T04:31:12;3.55;;;2.05;;
19026;SDS011;9646;52.034;5.554;2023-07-08T04:33:40;3.05;;;2.30;;
19026;SDS011;9646;52.034;5.554;2023-07-08T04:36:09;2.88;;;1.90;;
19026;SDS011;9646;52.034;5.554;2023-07-08T04:38:38;2.08;;;1.67;;
19026;SDS011;9646;52.034;5.554;2023-07-08T04:41:06;3.55;;;2.25;;
19026;SDS011;9646;52.034;5.554;2023-07-08T04:43:34;3.45;;;1.85;;
19026;SDS011;9646;52.034;5.554;2023-07-08T04:46:01;3.47;;;2.20;;
19026;SDS011;9646;52.034;5.554;2023-07-08T04:48:28;3.63;;;2.10;;
19026;SDS011;9646;52.034;5.554;2023-07-08T04:50:56;3.35;;;1.75;;
19026;SDS011;9646;52.034;5.554;2023-07-08T04:53:24;2.75;;;2.00;;
19026;SDS011;9646;52.034;5.554;2023-07-08T04:55:52;2.80;;;1.85;;
19026;SDS011;9646;52.034;5.554;2023-07-08T04:58:19;2.95;;;1.83;;
19026;SDS011;9646;52.034;5.554;2023-07-08T05:00:47;2.42;;;1.70;;
19026;SDS011;9646;52.034;5.554;2023-07-08T05:03:14;4.65;;;2.15;;
19026;SDS011;9646;52.034;5.554;2023-07-08T05:05:41;2.60;;;1.98;;
19026;SDS011;9646;52.034;5.554;2023-07-08T05:08:09;2.55;;;1.90;;
19026;SDS011;9646;52.034;5.554;2023-07-08T05:10:36;5.53;;;2.00;;
19026;SDS011;9646;52.034;5.554;2023-07-08T05:13:04;4.28;;;2.00;;
19026;SDS011;9646;52.034;5.554;2023-07-08T05:15:31;3.08;;;2.08;;
19026;SDS011;9646;52.034;5.554;2023-07-08T05:18:00;4.10;;;1.80;;
19026;SDS011;9646;52.034;5.554;2023-07-08T05:20:27;1.90;;;1.58;;
19026;SDS011;9646;52.034;5.554;2023-07-08T05:22:57;1.70;;;1.52;;
19026;SDS011;9646;52.034;5.554;2023-07-08T05:25:26;3.72;;;2.33;;
19026;SDS011;9646;52.034;5.554;2023-07-08T05:27:53;3.88;;;1.60;;
19026;SDS011;9646;52.034;5.554;2023-07-08T05:30:21;2.42;;;1.92;;
19026;SDS011;9646;52.034;5.554;2023-07-08T05:32:48;3.22;;;2.05;;
19026;SDS011;9646;52.034;5.554;2023-07-08T05:35:15;2.67;;;1.52;;
19026;SDS011;9646;52.034;5.554;2023-07-08T05:37:42;2.80;;;2.10;;
19026;SDS011;9646;52.034;5.554;2023-07-08T05:40:12;3.70;;;2.50;;
19026;SDS011;9646;52.034;5.554;2023-07-08T05:42:40;4.35;;;1.90;;
19026;SDS011;9646;52.034;5.554;2023-07-08T05:45:07;2.20;;;1.45;;
19026;SDS011;9646;52.034;5.554;2023-07-08T05:47:36;2.35;;;1.98;;
19026;SDS011;9646;52.034;5.554;2023-07-08T05:50:03;3.05;;;2.10;;
19026;SDS011;9646;52.034;5.554;2023-07-08T05:52:30;2.40;;;1.65;;
19026;SDS011;9646;52.034;5.554;2023-07-08T05:54:57;2.78;;;1.90;;
19026;SDS011;9646;52.034;5.554;2023-07-08T05:57:24;2.53;;;2.03;;
19026;SDS011;9646;52.034;5.554;2023-07-08T05:59:53;2.67;;;1.73;;
19026;SDS011;9646;52.034;5.554;2023-07-08T06:02:20;2.65;;;1.63;;
19026;SDS011;9646;52.034;5.554;2023-07-08T06:04:50;2.85;;;1.90;;
19026;SDS011;9646;52.034;5.554;2023-07-08T06:07:18;2.47;;;2.20;;
19026;SDS011;9646;52.034;5.554;2023-07-08T06:09:45;1.75;;;1.50;;
19026;SDS011;9646;52.034;5.554;2023-07-08T06:12:12;2.55;;;1.98;;
19026;SDS011;9646;52.034;5.554;2023-07-08T06:14:39;3.28;;;1.80;;
19026;SDS011;9646;52.034;5.554;2023-07-08T06:17:07;3.22;;;1.80;;
19026;SDS011;9646;52.034;5.554;2023-07-08T06:19:34;3.53;;;2.03;;
19026;SDS011;9646;52.034;5.554;2023-07-08T06:22:02;2.30;;;1.75;;
19026;SDS011;9646;52.034;5.554;2023-07-08T06:24:29;3.03;;;1.67;;
19026;SDS011;9646;52.034;5.554;2023-07-08T06:26:56;3.40;;;1.80;;
19026;SDS011;9646;52.034;5.554;2023-07-08T06:29:23;3.85;;;1.88;;
19026;SDS011;9646;52.034;5.554;2023-07-08T06:31:50;3.65;;;2.00;;
19026;SDS011;9646;52.034;5.554;2023-07-08T06:34:19;3.42;;;1.92;;
19026;SDS011;9646;52.034;5.554;2023-07-08T06:36:48;3.65;;;1.90;;
19026;SDS011;9646;52.034;5.554;2023-07-08T06:39:15;2.25;;;1.70;;
19026;SDS011;9646;52.034;5.554;2023-07-08T06:41:42;2.30;;;1.90;;
19026;SDS011;9646;52.034;5.554;2023-07-08T06:44:09;2.97;;;2.08;;
19026;SDS011;9646;52.034;5.554;2023-07-08T06:46:36;3.83;;;1.90;;
19026;SDS011;9646;52.034;5.554;2023-07-08T06:49:04;2.33;;;1.75;;
19026;SDS011;9646;52.034;5.554;2023-07-08T06:51:35;2.83;;;2.00;;
19026;SDS011;9646;52.034;5.554;2023-07-08T06:54:02;2.53;;;2.05;;
19026;SDS011;9646;52.034;5.554;2023-07-08T06:56:36;4.72;;;2.10;;
19026;SDS011;9646;52.034;5.554;2023-07-08T06:59:03;3.45;;;1.90;;
19026;SDS011;9646;52.034;5.554;2023-07-08T07:01:30;2.90;;;1.70;;
19026;SDS011;9646;52.034;5.554;2023-07-08T07:03:57;2.83;;;1.92;;
19026;SDS011;9646;52.034;5.554;2023-07-08T07:06:24;4.47;;;2.30;;
19026;SDS011;9646;52.034;5.554;2023-07-08T07:08:52;2.88;;;2.20;;
19026;SDS011;9646;52.034;5.554;2023-07-08T07:11:19;4.00;;;2.30;;
19026;SDS011;9646;52.034;5.554;2023-07-08T07:13:46;3.35;;;2.13;;
19026;SDS011;9646;52.034;5.554;2023-07-08T07:16:14;3.38;;;2.20;;
19026;SDS011;9646;52.034;5.554;2023-07-08T07:18:41;3.60;;;2.70;;
19026;SDS011;9646;52.034;5.554;2023-07-08T07:21:08;2.15;;;1.95;;
19026;SDS011;9646;52.034;5.554;2023-07-08T07:23:35;3.75;;;2.45;;
19026;SDS011;9646;52.034;5.554;2023-07-08T07:26:03;2.70;;;2.22;;
19026;SDS011;9646;52.034;5.554;2023-07-08T07:28:30;2.10;;;1.90;;
19026;SDS011;9646;52.034;5.554;2023-07-08T07:30:58;2.30;;;2.10;;
19026;SDS011;9646;52.034;5.554;2023-07-08T07:33:25;3.15;;;2.35;;
19026;SDS011;9646;52.034;5.554;2023-07-08T07:35:52;3.67;;;2.25;;
19026;SDS011;9646;52.034;5.554;2023-07-08T07:38:19;3.78;;;2.42;;
19026;SDS011;9646;52.034;5.554;2023-07-08T07:40:46;3.55;;;2.53;;
19026;SDS011;9646;52.034;5.554;2023-07-08T07:43:15;3.97;;;2.17;;
19026;SDS011;9646;52.034;5.554;2023-07-08T07:45:42;3.47;;;2.60;;
19026;SDS011;9646;52.034;5.554;2023-07-08T07:48:09;4.30;;;2.70;;
19026;SDS011;9646;52.034;5.554;2023-07-08T07:50:36;3.20;;;2.45;;
19026;SDS011;9646;52.034;5.554;2023-07-08T07:53:03;4.20;;;3.00;;
19026;SDS011;9646;52.034;5.554;2023-07-08T07:55:30;5.15;;;2.78;;
19026;SDS011;9646;52.034;5.554;2023-07-08T07:57:57;7.03;;;2.80;;
19026;SDS011;9646;52.034;5.554;2023-07-08T08:00:26;2.85;;;2.33;;
19026;SDS011;9646;52.034;5.554;2023-07-08T08:02:54;3.50;;;2.88;;
19026;SDS011;9646;52.034;5.554;2023-07-08T08:05:21;3.53;;;2.75;;
19026;SDS011;9646;52.034;5.554;2023-07-08T08:07:48;4.45;;;2.65;;
19026;SDS011;9646;52.034;5.554;2023-07-08T08:10:15;3.70;;;3.15;;
19026;SDS011;9646;52.034;5.554;2023-07-08T08:12:42;4.40;;;3.38;;
19026;SDS011;9646;52.034;5.554;2023-07-08T08:15:11;6.35;;;3.60;;
19026;SDS011;9646;52.034;5.554;2023-07-08T08:17:39;5.03;;;3.17;;
19026;SDS011;9646;52.034;5.554;2023-07-08T08:20:07;5.32;;;3.70;;
19026;SDS011;9646;52.034;5.554;2023-07-08T08:22:34;4.60;;;3.38;;
19026;SDS011;9646;52.034;5.554;2023-07-08T08:25:01;6.85;;;3.75;;
19026;SDS011;9646;52.034;5.554;2023-07-08T08:27:28;5.03;;;3.53;;
19026;SDS011;9646;52.034;5.554;2023-07-08T08:29:55;5.60;;;3.47;;
19026;SDS011;9646;52.034;5.554;2023-07-08T08:32:22;7.78;;;4.03;;
19026;SDS011;9646;52.034;5.554;2023-07-08T08:34:50;7.85;;;3.75;;
19026;SDS011;9646;52.034;5.554;2023-07-08T08:37:18;4.82;;;3.75;;
19026;SDS011;9646;52.034;5.554;2023-07-08T08:39:45;6.32;;;3.70;;
19026;SDS011;9646;52.034;5.554;2023-07-08T08:42:14;5.18;;;3.67;;
19026;SDS011;9646;52.034;5.554;2023-07-08T08:44:43;7.82;;;4.13;;
19026;SDS011;9646;52.034;5.554;2023-07-08T08:47:12;6.07;;;4.25;;
19026;SDS011;9646;52.034;5.554;2023-07-08T08:49:43;6.10;;;3.80;;
19026;SDS011;9646;52.034;5.554;2023-07-08T08:52:12;6.13;;;3.83;;
19026;SDS011;9646;52.034;5.554;2023-07-08T08:54:40;4.82;;;3.35;;
19026;SDS011;9646;52.034;5.554;2023-07-08T08:57:11;6.05;;;3.75;;
19026;SDS011;9646;52.034;5.554;2023-07-08T08:59:42;7.20;;;3.90;;
19026;SDS011;9646;52.034;5.554;2023-07-08T09:02:18;7.97;;;4.60;;
19026;SDS011;9646;52.034;5.554;2023-07-08T09:04:50;7.22;;;4.47;;
19026;SDS011;9646;52.034;5.554;2023-07-08T09:07:19;6.95;;;4.75;;
19026;SDS011;9646;52.034;5.554;2023-07-08T09:09:47;7.82;;;4.40;;
19026;SDS011;9646;52.034;5.554;2023-07-08T09:12:17;5.35;;;3.55;;
19026;SDS011;9646;52.034;5.554;2023-07-08T09:14:45;7.20;;;4.47;;
19026;SDS011;9646;52.034;5.554;2023-07-08T09:17:14;6.38;;;4.20;;
19026;SDS011;9646;52.034;5.554;2023-07-08T09:19:43;8.20;;;4.68;;
19026;SDS011;9646;52.034;5.554;2023-07-08T09:22:12;6.57;;;4.60;;
19026;SDS011;9646;52.034;5.554;2023-07-08T09:24:43;10.20;;;5.00;;
19026;SDS011;9646;52.034;5.554;2023-07-08T09:27:10;9.98;;;4.47;;
19026;SDS011;9646;52.034;5.554;2023-07-08T09:29:38;10.07;;;5.15;;
19026;SDS011;9646;52.034;5.554;2023-07-08T09:32:11;9.27;;;4.80;;
19026;SDS011;9646;52.034;5.554;2023-07-08T09:34:41;6.22;;;4.40;;
19026;SDS011;9646;52.034;5.554;2023-07-08T09:37:22;6.10;;;4.22;;
19026;SDS011;9646;52.034;5.554;2023-07-08T09:39:52;6.35;;;4.30;;
19026;SDS011;9646;52.034;5.554;2023-07-08T09:42:20;5.63;;;4.15;;
19026;SDS011;9646;52.034;5.554;2023-07-08T09:44:47;6.43;;;3.95;;
19026;SDS011;9646;52.034;5.554;2023-07-08T09:47:21;12.05;;;5.35;;
19026;SDS011;9646;52.034;5.554;2023-07-08T09:49:49;7.85;;;4.60;;
19026;SDS011;9646;52.034;5.554;2023-07-08T09:52:16;6.80;;;4.47;;
19026;SDS011;9646;52.034;5.554;2023-07-08T09:54:44;6.97;;;4.82;;
19026;SDS011;9646;52.034;5.554;2023-07-08T09:57:16;5.90;;;4.88;;
19026;SDS011;9646;52.034;5.554;2023-07-08T09:59:46;8.07;;;4.80;;
19026;SDS011;9646;52.034;5.554;2023-07-08T10:02:24;7.03;;;4.32;;
19026;SDS011;9646;52.034;5.554;2023-07-08T10:04:53;7.15;;;4.15;;
19026;SDS011;9646;52.034;5.554;2023-07-08T10:07:20;6.93;;;4.30;;
19026;SDS011;9646;52.034;5.554;2023-07-08T10:09:47;6.93;;;4.47;;
19026;SDS011;9646;52.034;5.554;2023-07-08T10:12:16;7.22;;;4.10;;
19026;SDS011;9646;52.034;5.554;2023-07-08T10:14:44;5.78;;;4.50;;
19026;SDS011;9646;52.034;5.554;2023-07-08T10:17:13;8.45;;;4.93;;
19026;SDS011;9646;52.034;5.554;2023-07-08T10:19:41;7.63;;;5.28;;
19026;SDS011;9646;52.034;5.554;2023-07-08T10:22:13;9.50;;;5.47;;
19026;SDS011;9646;52.034;5.554;2023-07-08T10:24:51;8.25;;;5.00;;
19026;SDS011;9646;52.034;5.554;2023-07-08T10:27:24;8.38;;;4.80;;
19026;SDS011;9646;52.034;5.554;2023-07-08T10:29:56;7.38;;;5.10;;
19026;SDS011;9646;52.034;5.554;2023-07-08T10:32:36;7.45;;;4.82;;
19026;SDS011;9646;52.034;5.554;2023-07-08T10:35:10;7.63;;;4.68;;
19026;SDS011;9646;52.034;5.554;2023-07-08T10:37:42;7.45;;;5.00;;
19026;SDS011;9646;52.034;5.554;2023-07-08T10:40:19;9.60;;;5.28;;
19026;SDS011;9646;52.034;5.554;2023-07-08T10:43:00;9.07;;;5.00;;
19026;SDS011;9646;52.034;5.554;2023-07-08T10:45:32;7.45;;;4.93;;
19026;SDS011;9646;52.034;5.554;2023-07-08T10:48:04;9.65;;;4.85;;
19026;SDS011;9646;52.034;5.554;2023-07-08T10:50:40;8.00;;;4.55;;
19026;SDS011;9646;52.034;5.554;2023-07-08T10:53:18;7.55;;;5.28;;
19026;SDS011;9646;52.034;5.554;2023-07-08T10:55:49;7.13;;;4.57;;
19026;SDS011;9646;52.034;5.554;2023-07-08T10:58:23;11.18;;;5.90;;
19026;SDS011;9646;52.034;5.554;2023-07-08T11:00:54;7.90;;;4.80;;
19026;SDS011;9646;52.034;5.554;2023-07-08T11:03:40;9.10;;;5.25;;
19026;SDS011;9646;52.034;5.554;2023-07-08T11:06:10;8.02;;;4.90;;
19026;SDS011;9646;52.034;5.554;2023-07-08T11:08:38;8.77;;;5.43;;
19026;SDS011;9646;52.034;5.554;2023-07-08T11:11:06;8.30;;;5.95;;
19026;SDS011;9646;52.034;5.554;2023-07-08T11:13:38;8.13;;;5.47;;
19026;SDS011;9646;52.034;5.554;2023-07-08T11:16:10;7.47;;;5.43;;
19026;SDS011;9646;52.034;5.554;2023-07-08T11:18:40;12.85;;;6.20;;
19026;SDS011;9646;52.034;5.554;2023-07-08T11:21:09;11.32;;;5.50;;
19026;SDS011;9646;52.034;5.554;2023-07-08T11:23:38;7.57;;;5.93;;
19026;SDS011;9646;52.034;5.554;2023-07-08T11:28:56;8.85;;;6.20;;
19026;SDS011;9646;52.034;5.554;2023-07-08T11:31:24;8.20;;;6.07;;
19026;SDS011;9646;52.034;5.554;2023-07-08T11:33:52;9.10;;;5.65;;
19026;SDS011;9646;52.034;5.554;2023-07-08T11:36:22;9.13;;;5.68;;
19026;SDS011;9646;52.034;5.554;2023-07-08T11:38:50;7.95;;;6.00;;
19026;SDS011;9646;52.034;5.554;2023-07-08T11:41:18;9.10;;;5.95;;
19026;SDS011;9646;52.034;5.554;2023-07-08T11:43:47;7.60;;;5.53;;
19026;SDS011;9646;52.034;5.554;2023-07-08T11:46:18;9.20;;;6.05;;
19026;SDS011;9646;52.034;5.554;2023-07-08T11:48:46;7.95;;;5.60;;
19026;SDS011;9646;52.034;5.554;2023-07-08T11:51:16;7.50;;;5.50;;
19026;SDS011;9646;52.034;5.554;2023-07-08T11:53:47;7.68;;;6.07;;
19026;SDS011;9646;52.034;5.554;2023-07-08T11:56:23;8.20;;;5.55;;
19026;SDS011;9646;52.034;5.554;2023-07-08T11:58:54;8.85;;;6.63;;
19026;SDS011;9646;52.034;5.554;2023-07-08T12:01:27;7.82;;;5.65;;
19026;SDS011;9646;52.034;5.554;2023-07-08T12:03:55;8.77;;;5.70;;
19026;SDS011;9646;52.034;5.554;2023-07-08T12:06:42;8.63;;;5.85;;
19026;SDS011;9646;52.034;5.554;2023-07-08T12:09:13;8.65;;;5.65;;
19026;SDS011;9646;52.034;5.554;2023-07-08T12:11:43;9.05;;;6.05;;
19026;SDS011;9646;52.034;5.554;2023-07-08T12:14:10;9.45;;;6.20;;
19026;SDS011;9646;52.034;5.554;2023-07-08T12:16:38;8.13;;;5.07;;
19026;SDS011;9646;52.034;5.554;2023-07-08T12:19:09;7.68;;;5.47;;
19026;SDS011;9646;52.034;5.554;2023-07-08T12:21:37;7.88;;;5.78;;
19026;SDS011;9646;52.034;5.554;2023-07-08T12:24:05;8.40;;;5.68;;
19026;SDS011;9646;52.034;5.554;2023-07-08T12:26:33;7.53;;;5.30;;
19026;SDS011;9646;52.034;5.554;2023-07-08T12:29:00;7.68;;;5.53;;
19026;SDS011;9646;52.034;5.554;2023-07-08T12:31:27;5.88;;;4.78;;
19026;SDS011;9646;52.034;5.554;2023-07-08T12:33:58;11.70;;;6.32;;
19026;SDS011;9646;52.034;5.554;2023-07-08T12:36:27;7.85;;;5.65;;
19026;SDS011;9646;52.034;5.554;2023-07-08T12:38:54;9.00;;;5.75;;
19026;SDS011;9646;52.034;5.554;2023-07-08T12:41:23;9.45;;;5.70;;
19026;SDS011;9646;52.034;5.554;2023-07-08T12:43:51;11.00;;;6.20;;
19026;SDS011;9646;52.034;5.554;2023-07-08T12:46:19;7.43;;;5.40;;
19026;SDS011;9646;52.034;5.554;2023-07-08T12:48:47;7.50;;;5.35;;
19026;SDS011;9646;52.034;5.554;2023-07-08T12:51:16;7.32;;;5.57;;
19026;SDS011;9646;52.034;5.554;2023-07-08T12:53:45;7.28;;;5.43;;
19026;SDS011;9646;52.034;5.554;2023-07-08T12:56:13;8.60;;;5.10;;
19026;SDS011;9646;52.034;5.554;2023-07-08T12:58:41;10.05;;;5.55;;
19026;SDS011;9646;52.034;5.554;2023-07-08T13:01:08;9.52;;;5.45;;
19026;SDS011;9646;52.034;5.554;2023-07-08T13:03:41;7.60;;;5.25;;
19026;SDS011;9646;52.034;5.554;2023-07-08T13:06:09;6.65;;;4.80;;
19026;SDS011;9646;52.034;5.554;2023-07-08T13:08:38;10.35;;;6.15;;
19026;SDS011;9646;52.034;5.554;2023-07-08T13:11:05;7.60;;;5.68;;
19026;SDS011;9646;52.034;5.554;2023-07-08T13:13:34;7.28;;;4.50;;
19026;SDS011;9646;52.034;5.554;2023-07-08T13:16:01;8.05;;;4.82;;
19026;SDS011;9646;52.034;5.554;2023-07-08T13:18:31;11.55;;;5.45;;
19026;SDS011;9646;52.034;5.554;2023-07-08T13:20:59;7.13;;;5.45;;
19026;SDS011;9646;52.034;5.554;2023-07-08T13:23:26;8.05;;;5.18;;
19026;SDS011;9646;52.034;5.554;2023-07-08T13:25:55;12.45;;;4.55;;
19026;SDS011;9646;52.034;5.554;2023-07-08T13:28:23;10.25;;;5.28;;
19026;SDS011;9646;52.034;5.554;2023-07-08T13:30:51;6.72;;;5.03;;
19026;SDS011;9646;52.034;5.554;2023-07-08T13:33:19;7.95;;;5.13;;
19026;SDS011;9646;52.034;5.554;2023-07-08T13:35:46;8.52;;;5.60;;
19026;SDS011;9646;52.034;5.554;2023-07-08T13:38:14;8.40;;;5.95;;
19026;SDS011;9646;52.034;5.554;2023-07-08T13:40:42;9.38;;;5.60;;
19026;SDS011;9646;52.034;5.554;2023-07-08T13:43:12;11.32;;;5.85;;
19026;SDS011;9646;52.034;5.554;2023-07-08T13:45:42;8.43;;;5.82;;
19026;SDS011;9646;52.034;5.554;2023-07-08T13:48:13;9.75;;;5.82;;
19026;SDS011;9646;52.034;5.554;2023-07-08T13:50:44;8.63;;;5.72;;
19026;SDS011;9646;52.034;5.554;2023-07-08T13:53:19;10.80;;;5.43;;
19026;SDS011;9646;52.034;5.554;2023-07-08T13:55:46;9.98;;;5.40;;
19026;SDS011;9646;52.034;5.554;2023-07-08T13:58:16;9.45;;;5.47;;
19026;SDS011;9646;52.034;5.554;2023-07-08T14:00:43;7.35;;;5.60;;
19026;SDS011;9646;52.034;5.554;2023-07-08T14:03:11;8.80;;;4.88;;
19026;SDS011;9646;52.034;5.554;2023-07-08T14:05:38;7.35;;;5.03;;
19026;SDS011;9646;52.034;5.554;2023-07-08T14:08:09;7.32;;;5.13;;
19026;SDS011;9646;52.034;5.554;2023-07-08T14:10:37;7.38;;;4.68;;
19026;SDS011;9646;52.034;5.554;2023-07-08T14:13:04;9.70;;;5.10;;
19026;SDS011;9646;52.034;5.554;2023-07-08T14:15:32;6.95;;;4.80;;
19026;SDS011;9646;52.034;5.554;2023-07-08T14:18:00;8.45;;;4.90;;
19026;SDS011;9646;52.034;5.554;2023-07-08T14:20:28;9.20;;;4.78;;
19026;SDS011;9646;52.034;5.554;2023-07-08T14:22:56;8.07;;;5.03;;
19026;SDS011;9646;52.034;5.554;2023-07-08T14:25:23;8.23;;;5.70;;
19026;SDS011;9646;52.034;5.554;2023-07-08T14:27:50;6.40;;;4.78;;
19026;SDS011;9646;52.034;5.554;2023-07-08T14:30:17;7.75;;;4.85;;
19026;SDS011;9646;52.034;5.554;2023-07-08T14:32:48;7.63;;;5.43;;
19026;SDS011;9646;52.034;5.554;2023-07-08T14:35:16;8.43;;;5.03;;
19026;SDS011;9646;52.034;5.554;2023-07-08T14:37:43;7.75;;;5.57;;
19026;SDS011;9646;52.034;5.554;2023-07-08T14:40:18;8.15;;;4.68;;
19026;SDS011;9646;52.034;5.554;2023-07-08T14:42:45;9.98;;;5.38;;
19026;SDS011;9646;52.034;5.554;2023-07-08T14:45:12;7.68;;;4.97;;
19026;SDS011;9646;52.034;5.554;2023-07-08T14:47:39;7.00;;;4.70;;
19026;SDS011;9646;52.034;5.554;2023-07-08T14:50:12;7.50;;;5.15;;
19026;SDS011;9646;52.034;5.554;2023-07-08T14:52:40;7.13;;;4.97;;
19026;SDS011;9646;52.034;5.554;2023-07-08T14:55:07;5.75;;;4.68;;
19026;SDS011;9646;52.034;5.554;2023-07-08T14:57:37;8.18;;;5.25;;
19026;SDS011;9646;52.034;5.554;2023-07-08T15:00:09;8.90;;;5.43;;
19026;SDS011;9646;52.034;5.554;2023-07-08T15:02:38;7.68;;;5.38;;
19026;SDS011;9646;52.034;5.554;2023-07-08T15:05:08;9.02;;;6.07;;
19026;SDS011;9646;52.034;5.554;2023-07-08T15:07:40;9.05;;;5.80;;
19026;SDS011;9646;52.034;5.554;2023-07-08T15:10:07;7.90;;;5.50;;
19026;SDS011;9646;52.034;5.554;2023-07-08T15:12:34;9.32;;;5.90;;